createdAt,value
2019-02-15T00:09:28.502Z,62.20
2019-02-15T00:14:52.519Z,47.50
2019-02-15T00:17:55.593Z,48.80
2019-02-15T00:20:38.884Z,63.90
2019-02-15T00:23:15.813Z,64.50
2019-02-15T00:25:52.805Z,62.80
2019-02-15T00:28:29.748Z,64.20
2019-02-15T00:31:07.792Z,49.80
2019-02-15T00:33:44.714Z,49.50
2019-02-15T00:36:21.699Z,47.90
2019-02-15T00:38:59.055Z,47.20
2019-02-15T00:41:36.048Z,47.40
2019-02-15T00:44:13.020Z,61.70
2019-02-15T00:47:19.261Z,60.70
2019-02-15T00:50:16.822Z,58.50
2019-02-15T00:55:58.265Z,58.00
2019-02-15T00:58:50.986Z,56.30
2019-02-15T01:01:51.364Z,54.40
2019-02-15T01:04:46.778Z,55.30
2019-02-15T01:10:43.289Z,56.70
2019-02-15T01:13:30.941Z,56.60
2019-02-15T01:16:03.560Z,54.80
2019-02-15T01:18:40.532Z,56.10
2019-02-15T01:21:17.501Z,43.60
2019-02-15T01:26:49.609Z,56.10
2019-02-15T01:29:38.485Z,43.50
2019-02-15T01:38:28.055Z,52.80
2019-02-15T01:41:20.472Z,53.30
2019-02-15T01:47:19.224Z,40.50
2019-02-15T01:49:56.084Z,42.10
2019-02-15T01:52:33.237Z,42.00
2019-02-15T01:55:10.224Z,41.50
2019-02-15T01:57:48.640Z,41.80
2019-02-15T02:00:28.244Z,55.50
2019-02-15T02:03:05.828Z,54.70
2019-02-15T02:05:42.966Z,55.80
2019-02-15T02:08:25.548Z,54.50
2019-02-15T02:11:04.042Z,54.70
2019-02-15T02:13:48.994Z,41.60
2019-02-15T02:16:19.124Z,55.50
2019-02-15T02:18:56.041Z,50.90
2019-02-15T02:21:33.013Z,46.20
2019-02-15T02:26:44.969Z,52.80
2019-02-15T02:29:21.938Z,40.00
2019-02-15T02:31:59.004Z,51.90
2019-02-15T02:34:35.975Z,48.60
2019-02-15T02:37:13.794Z,49.50
2019-02-15T02:39:50.787Z,37.50
2019-02-15T02:42:27.684Z,37.50
2019-02-15T02:45:04.791Z,36.80
2019-02-15T02:47:41.700Z,51.40
2019-02-15T02:50:18.582Z,49.30
2019-02-15T02:52:55.654Z,50.00
2019-02-15T02:55:32.588Z,50.80
2019-02-15T02:58:09.484Z,38.90
2019-02-15T03:00:46.398Z,37.40
2019-02-15T03:03:23.333Z,49.90
2019-02-15T03:06:00.319Z,37.10
2019-02-15T03:08:37.184Z,37.00
2019-02-15T03:11:14.273Z,36.90
2019-02-15T03:13:51.212Z,36.70
2019-02-15T03:16:28.226Z,36.70
2019-02-15T03:19:05.499Z,38.30
2019-02-15T03:21:42.449Z,66.50
2019-02-15T03:24:19.357Z,69.50
2019-02-15T03:26:56.278Z,76.70
2019-02-15T03:29:33.250Z,67.50
2019-02-15T03:32:10.200Z,58.50
2019-02-15T03:34:47.160Z,38.90
2019-02-15T03:37:34.927Z,38.80
2019-02-15T03:40:41.295Z,39.20
2019-02-15T03:43:18.234Z,52.50
2019-02-15T03:45:55.166Z,49.10
2019-02-15T03:53:41.758Z,42.90
2019-02-15T03:58:53.408Z,37.80
2019-02-15T04:01:30.438Z,49.70
2019-02-15T04:04:07.420Z,48.90
2019-02-15T04:06:44.325Z,37.30
2019-02-15T04:09:21.582Z,50.90
2019-02-15T04:11:58.654Z,40.00
2019-02-15T04:14:35.798Z,38.90
2019-02-15T04:22:25.318Z,46.20
2019-02-15T04:25:02.258Z,48.80
2019-02-15T04:30:14.691Z,42.60
2019-02-15T04:32:51.710Z,47.00
2019-02-15T04:35:28.633Z,47.10
2019-02-15T04:38:05.846Z,48.00
2019-02-15T04:40:42.707Z,48.00
2019-02-15T04:58:46.853Z,43.00
2019-02-15T05:01:23.754Z,39.00
2019-02-15T05:04:00.738Z,39.70
2019-02-15T05:06:37.850Z,44.20
2019-02-15T05:09:15.412Z,39.00
2019-02-15T05:11:52.395Z,38.90
2019-02-15T05:14:29.332Z,39.50
2019-02-15T05:17:06.304Z,40.40
2019-02-15T05:24:52.598Z,46.60
2019-02-15T05:32:38.568Z,49.50
2019-02-15T05:35:15.481Z,38.70
2019-02-15T05:37:52.470Z,39.40
2019-02-15T05:40:29.627Z,49.40
2019-02-15T05:45:40.993Z,49.60
2019-02-15T05:53:27.033Z,47.10
2019-02-15T05:56:03.946Z,48.60
2019-02-15T05:58:42.324Z,48.90
2019-02-15T06:01:19.517Z,49.20
2019-02-15T06:03:56.449Z,47.60
2019-02-15T06:06:34.619Z,38.10
2019-02-15T06:09:12.303Z,36.90
2019-02-15T06:11:49.195Z,36.60
2019-02-15T06:14:26.026Z,48.80
2019-02-15T06:17:03.601Z,37.90
2019-02-15T06:19:40.519Z,37.90
2019-02-15T06:22:17.451Z,38.90
2019-02-15T06:24:54.331Z,41.30
2019-02-15T06:27:31.408Z,38.70
2019-02-15T06:30:08.472Z,37.80
2019-02-15T06:32:45.381Z,37.20
2019-02-15T06:35:22.274Z,37.60
2019-02-15T06:37:59.196Z,38.10
2019-02-15T06:40:36.203Z,37.60
2019-02-15T06:43:13.092Z,37.70
2019-02-15T06:45:54.000Z,37.70
2019-02-15T06:48:30.626Z,37.30
2019-02-15T06:51:07.504Z,37.30
2019-02-15T06:53:44.480Z,37.90
2019-02-15T06:56:21.411Z,37.60
2019-02-15T06:59:11.802Z,37.10
2019-02-15T07:01:54.990Z,38.20
2019-02-15T07:04:42.495Z,37.90
2019-02-15T07:07:19.432Z,37.70
2019-02-15T07:09:56.365Z,36.90
2019-02-15T07:12:33.747Z,37.40
2019-02-15T07:15:11.439Z,37.20
2019-02-15T07:17:48.442Z,37.50
2019-02-15T07:20:25.771Z,37.70
2019-02-15T07:23:02.681Z,36.80
2019-02-15T07:25:39.666Z,37.60
2019-02-15T07:28:16.806Z,55.90
2019-02-15T07:30:53.669Z,38.70
2019-02-15T07:33:30.740Z,39.50
2019-02-15T07:36:07.724Z,40.10
2019-02-15T07:38:47.794Z,39.40
2019-02-15T07:41:24.982Z,40.00
2019-02-15T07:44:02.020Z,59.20
2019-02-15T07:46:39.866Z,39.30
2019-02-15T07:49:16.837Z,39.50
2019-02-15T07:51:54.990Z,40.00
2019-02-15T07:54:31.926Z,39.50
2019-02-15T07:57:09.289Z,39.00
2019-02-15T07:59:46.249Z,44.80
2019-02-15T08:02:23.161Z,50.40
2019-02-15T08:05:00.305Z,39.80
2019-02-15T08:07:37.319Z,40.80
2019-02-15T08:10:15.164Z,53.30
2019-02-15T08:12:52.871Z,42.30
2019-02-15T08:15:35.874Z,42.60
2019-02-15T08:18:07.927Z,41.80
2019-02-15T08:20:44.868Z,41.70
2019-02-15T08:23:22.226Z,42.00
2019-02-15T08:25:59.899Z,55.40
2019-02-15T08:28:37.291Z,54.20
2019-02-15T08:31:14.417Z,54.60
2019-02-15T08:33:51.617Z,42.30
2019-02-15T08:36:28.628Z,48.30
2019-02-15T08:39:06.753Z,43.60
2019-02-15T08:42:00.250Z,44.40
2019-02-15T08:44:21.983Z,45.00
2019-02-15T08:49:34.186Z,58.70
2019-02-15T08:52:11.200Z,58.10
2019-02-15T08:57:22.694Z,57.30
2019-02-15T09:05:09.298Z,58.20
2019-02-15T09:12:59.436Z,58.60
2019-02-15T09:20:46.328Z,53.80
2019-02-15T09:23:23.458Z,57.50
2019-02-15T09:28:42.808Z,58.50
2019-02-15T09:31:19.962Z,55.40
2019-02-15T09:33:57.590Z,57.70
2019-02-15T09:41:44.860Z,59.50
2019-02-15T09:44:22.131Z,59.70
2019-02-15T09:49:34.393Z,60.50
2019-02-15T09:52:12.021Z,60.80
2019-02-15T09:54:49.116Z,61.00
2019-02-15T09:57:26.357Z,61.20
2019-02-15T10:02:38.071Z,60.80
2019-02-15T10:05:15.212Z,58.30
2019-02-15T10:07:52.134Z,60.50
2019-02-15T10:10:29.184Z,60.90
2019-02-15T10:13:06.478Z,60.30
2019-02-15T10:18:20.052Z,61.40
2019-02-15T10:20:57.040Z,62.20
2019-02-15T10:23:34.010Z,63.10
2019-02-15T10:26:10.914Z,64.10
2019-02-15T10:28:48.365Z,63.90
2019-02-15T10:31:25.288Z,63.30
2019-02-15T10:36:37.251Z,63.90
2019-02-15T10:39:14.661Z,64.00
2019-02-15T10:41:51.635Z,64.60
2019-02-15T10:44:28.944Z,63.10
2019-02-15T10:54:49.990Z,64.10
2019-02-15T10:57:26.985Z,63.30
2019-02-15T11:00:04.049Z,65.30
2019-02-15T11:02:41.073Z,64.90
2019-02-15T11:05:19.056Z,65.80
2019-02-15T11:13:05.140Z,64.00
2019-02-15T11:26:00.596Z,63.50
2019-02-15T11:28:37.593Z,64.00
2019-02-15T11:36:23.656Z,63.00
2019-02-15T11:39:01.969Z,64.20
2019-02-15T11:41:40.816Z,63.60
2019-02-15T11:44:18.121Z,64.00
2019-02-15T11:49:30.967Z,64.20
2019-02-15T11:52:08.524Z,63.90
2019-02-15T11:54:45.597Z,64.20
2019-02-15T11:57:22.655Z,64.10
2019-02-15T12:00:00.392Z,64.40
2019-02-15T12:02:37.236Z,64.70
2019-02-15T12:07:48.945Z,65.10
2019-02-15T12:10:26.755Z,65.70
2019-02-15T12:13:03.859Z,67.90
2019-02-15T12:15:40.842Z,66.40
2019-02-15T12:18:18.127Z,66.70
2019-02-15T12:20:55.045Z,67.20
2019-02-15T12:23:32.407Z,68.00
2019-02-15T12:26:11.439Z,68.90
2019-02-15T12:28:48.379Z,69.00
2019-02-15T12:31:25.361Z,70.00
2019-02-15T12:39:14.637Z,66.30
2019-02-15T12:41:52.796Z,67.30
2019-02-15T12:44:31.756Z,68.50
2019-02-15T12:47:14.849Z,67.70
2019-02-15T12:49:47.035Z,68.30
2019-02-15T12:52:23.997Z,66.60
2019-02-15T12:55:03.200Z,67.90
2019-02-15T13:02:52.269Z,72.90
2019-02-15T13:05:29.861Z,69.00
2019-02-15T13:08:08.000Z,68.10
2019-02-15T13:10:45.696Z,69.60
2019-02-15T13:13:23.107Z,67.70
2019-02-15T13:16:00.052Z,69.60
2019-02-15T13:18:36.984Z,69.50
2019-02-15T13:21:13.901Z,69.30
2019-02-15T13:23:50.821Z,70.00
2019-02-15T13:26:27.783Z,70.30
2019-02-15T13:29:05.206Z,71.80
2019-02-15T13:31:42.155Z,72.00
2019-02-15T13:34:19.282Z,71.50
2019-02-15T13:36:57.463Z,70.40
2019-02-15T13:39:34.437Z,57.30
2019-02-15T13:42:11.330Z,57.30
2019-02-15T13:44:50.918Z,57.20
2019-02-15T13:47:34.276Z,57.40
2019-02-15T13:50:05.994Z,57.30
2019-02-15T13:52:42.957Z,57.40
2019-02-15T13:55:19.828Z,57.50
2019-02-15T13:57:57.004Z,57.70
2019-02-15T14:00:34.406Z,57.50
2019-02-15T14:03:11.355Z,57.90
2019-02-15T14:05:48.588Z,73.90
2019-02-15T14:08:27.424Z,73.50
2019-02-15T14:11:06.595Z,73.00
2019-02-15T14:13:43.507Z,74.70
2019-02-15T14:16:20.488Z,58.40
2019-02-15T14:18:58.548Z,58.60
2019-02-15T14:21:44.229Z,58.80
2019-02-15T14:24:13.956Z,58.80
2019-02-15T14:26:50.974Z,59.10
2019-02-15T14:29:27.905Z,59.20
2019-02-15T14:32:04.854Z,75.40
2019-02-15T14:34:42.985Z,74.40
2019-02-15T14:37:20.469Z,73.90
2019-02-15T14:39:57.362Z,74.40
2019-02-15T14:42:34.583Z,74.40
2019-02-15T14:45:11.849Z,76.30
2019-02-15T14:47:54.939Z,75.90
2019-02-15T14:50:26.893Z,75.50
2019-02-15T14:53:04.120Z,75.20
2019-02-15T14:58:15.695Z,77.90
2019-02-15T15:00:52.890Z,76.60
2019-02-15T15:03:31.214Z,60.70
2019-02-15T15:06:08.148Z,61.00
2019-02-15T15:08:45.447Z,77.10
2019-02-15T15:11:22.496Z,77.10
2019-02-15T15:14:00.065Z,76.60
2019-02-15T15:16:37.012Z,76.60
2019-02-15T15:19:14.166Z,79.50
2019-02-15T15:21:51.104Z,78.70
2019-02-15T15:24:28.520Z,78.70
2019-02-15T15:27:05.819Z,77.30
2019-02-15T15:29:43.314Z,61.40
2019-02-15T15:32:20.262Z,76.20
2019-02-15T15:34:57.668Z,75.60
2019-02-15T15:37:34.857Z,76.50
2019-02-15T15:40:12.623Z,80.10
2019-02-15T15:42:50.195Z,76.20
2019-02-15T15:45:29.061Z,70.60
2019-02-15T15:50:40.902Z,75.30
2019-02-15T15:53:17.838Z,74.90
2019-02-15T15:55:54.793Z,71.60
2019-02-15T16:01:06.289Z,75.10
2019-02-15T16:03:44.844Z,77.40
2019-02-15T16:06:24.444Z,76.40
2019-02-15T16:08:59.738Z,75.30
2019-02-15T16:14:11.537Z,74.50
2019-02-15T16:24:32.897Z,74.70
2019-02-15T16:27:10.168Z,74.70
2019-02-15T16:29:47.040Z,74.70
2019-02-15T16:32:24.016Z,75.00
2019-02-15T16:35:02.493Z,74.60
2019-02-15T16:37:40.136Z,74.40
2019-02-15T16:42:52.415Z,74.10
2019-02-15T16:45:29.327Z,74.30
2019-02-15T16:48:07.524Z,73.80
2019-02-15T16:50:44.887Z,72.40
2019-02-15T16:53:21.932Z,74.00
2019-02-15T16:55:58.918Z,74.10
2019-02-15T17:01:11.428Z,73.90
2019-02-15T17:06:23.374Z,74.20
2019-02-15T17:11:34.945Z,74.30
2019-02-15T17:19:23.465Z,73.60
2019-02-15T17:22:00.428Z,73.90
2019-02-15T17:24:37.464Z,73.40
2019-02-15T17:27:14.758Z,71.60
2019-02-15T17:29:51.940Z,73.80
2019-02-15T17:32:28.898Z,74.20
2019-02-15T17:35:06.477Z,74.30
2019-02-15T17:37:43.408Z,74.20
2019-02-15T17:40:20.446Z,61.00
2019-02-15T17:42:58.543Z,77.80
2019-02-15T17:48:10.201Z,77.00
2019-02-15T17:50:47.316Z,77.00
2019-02-15T17:53:24.241Z,61.20
2019-02-15T17:56:01.232Z,73.40
2019-02-15T17:58:40.049Z,80.30
2019-02-15T18:04:24.087Z,76.10
2019-02-15T18:07:00.951Z,76.70
2019-02-15T18:09:37.911Z,78.00
2019-02-15T18:12:14.828Z,78.30
2019-02-15T18:14:51.835Z,77.20
2019-02-15T18:17:28.677Z,77.10
2019-02-15T18:22:40.224Z,76.90
2019-02-15T18:25:17.209Z,77.90
2019-02-15T18:27:54.135Z,77.70
2019-02-15T18:30:31.143Z,78.10
2019-02-15T18:33:08.051Z,69.70
2019-02-15T18:35:45.094Z,78.00
2019-02-15T18:38:21.968Z,76.60
2019-02-15T18:40:58.934Z,76.00
2019-02-15T18:43:35.868Z,75.60
2019-02-15T18:46:12.765Z,75.40
2019-02-15T18:51:24.201Z,75.60
2019-02-15T18:54:01.152Z,77.20
2019-02-15T18:56:38.205Z,76.50
2019-02-15T19:01:49.597Z,75.70
2019-02-15T19:04:26.513Z,75.60
2019-02-15T19:07:03.378Z,75.10
2019-02-15T19:12:16.558Z,75.30
2019-02-15T19:14:53.393Z,75.50
2019-02-15T19:25:14.637Z,76.00
2019-02-15T19:27:51.584Z,76.10
2019-02-15T19:30:29.772Z,68.40
2019-02-15T19:33:06.866Z,76.30
2019-02-15T19:35:44.356Z,79.00
2019-02-15T19:40:55.906Z,79.20
2019-02-15T19:46:07.399Z,79.00
2019-02-15T19:48:44.417Z,78.90
2019-02-15T19:51:21.626Z,78.20
2019-02-15T19:53:58.589Z,78.50
2019-02-15T19:56:35.459Z,78.40
2019-02-15T20:06:56.269Z,78.50
2019-02-15T20:09:33.193Z,79.00
2019-02-15T20:12:11.346Z,72.40
2019-02-15T20:14:48.333Z,78.60
2019-02-15T20:25:10.228Z,77.10
2019-02-15T20:27:47.329Z,77.40
2019-02-15T20:30:24.880Z,77.00
2019-02-15T20:33:01.915Z,69.60
2019-02-15T20:35:38.860Z,76.90
2019-02-15T20:38:15.830Z,76.80
2019-02-15T20:40:52.712Z,78.30
2019-02-15T20:43:29.706Z,77.90
2019-02-15T20:46:06.796Z,77.80
2019-02-15T20:51:18.594Z,78.40
2019-02-15T20:53:55.548Z,78.40
2019-02-15T20:56:32.478Z,77.90
2019-02-15T21:01:44.494Z,77.70
2019-02-15T21:04:21.421Z,77.60
2019-02-15T21:06:58.590Z,77.30
2019-02-15T21:09:35.538Z,77.20
2019-02-15T21:12:12.729Z,77.10
2019-02-15T21:20:07.254Z,76.90
2019-02-15T21:22:37.790Z,76.60
2019-02-15T21:27:49.968Z,75.40
2019-02-15T21:33:01.484Z,75.70
2019-02-15T21:38:12.841Z,74.00
2019-02-15T21:40:49.812Z,72.10
2019-02-15T21:43:26.912Z,69.40
2019-02-15T21:48:38.397Z,71.30
2019-02-15T21:51:15.312Z,71.40
2019-02-15T21:54:00.013Z,72.00
2019-02-15T21:56:36.951Z,58.70
2019-02-15T21:59:13.958Z,75.40
2019-02-15T22:02:17.129Z,58.50
2019-02-15T22:04:54.022Z,58.40
2019-02-15T22:07:31.504Z,58.00
2019-02-15T22:10:09.261Z,58.20
2019-02-15T22:12:46.173Z,58.10
2019-02-15T22:15:23.171Z,58.20
2019-02-15T22:18:00.434Z,76.90
2019-02-15T22:20:40.444Z,58.30
2019-02-15T22:23:17.894Z,58.00
2019-02-15T22:25:55.250Z,58.80
2019-02-15T22:28:32.164Z,58.80
2019-02-15T22:31:09.347Z,60.00
2019-02-15T22:33:46.277Z,58.80
2019-02-15T22:36:23.206Z,58.60
2019-02-15T22:39:00.085Z,57.80
2019-02-15T22:41:37.109Z,57.50
2019-02-15T22:44:14.023Z,57.90
2019-02-15T22:46:52.298Z,58.10
2019-02-15T22:49:30.490Z,57.90
2019-02-15T22:52:07.369Z,71.40
2019-02-15T22:54:44.687Z,56.70
2019-02-15T22:57:21.607Z,72.80
2019-02-15T23:02:33.157Z,67.00
2019-02-15T23:05:10.167Z,67.00
2019-02-15T23:07:47.253Z,66.30
2019-02-15T23:13:00.240Z,66.20
2019-02-15T23:18:11.361Z,69.90
2019-02-15T23:20:48.341Z,69.30
2019-02-15T23:23:25.276Z,69.60
2019-02-15T23:28:36.687Z,61.00
2019-02-15T23:33:48.395Z,54.20
2019-02-15T23:36:25.332Z,55.20
2019-02-15T23:39:03.840Z,68.80
2019-02-15T23:41:40.751Z,67.90
2019-02-15T23:44:17.677Z,53.30
2019-02-15T23:46:54.638Z,54.00
2019-02-15T23:49:31.561Z,50.40
2019-02-15T23:52:08.494Z,48.20
2019-02-15T23:54:45.410Z,48.80
2019-02-15T23:57:23.571Z,50.00
